Time;durP1;ratioP1;P1;durP2;ratioP2;P2;SDS_P1;SDS_P2;PMS_P1;PMS_P2;Temp;Humidity;BMP_temperature;BMP_pressure;BME280_temperature;BME280_humidity;BME280_pressure;Samples;Min_cycle;Max_cycle;Signal;HPM_P1;HPM_P2
2023/07/17 00:02:04;;;;;;;;;36.67;33.33;;;;;23.71;93.54;99537.50;6313893;20;3595080;-53
2023/07/17 00:04:34;;;;;;;;;33.33;31.33;;;;;23.73;93.23;99537.38;6279292;20;3596624;-52
2023/07/17 00:07:02;;;;;;;;;34.00;31.00;;;;;23.68;93.96;99537.88;6281670;20;3604482;-50
2023/07/17 00:09:31;;;;;;;;;36.33;32.33;;;;;23.67;93.67;99538.88;6284496;20;3588806;-55
2023/07/17 00:11:59;;;;;;;;;39.00;32.67;;;;;23.76;92.34;99540.59;6281726;20;3589955;-51
2023/07/17 00:14:27;;;;;;;;;37.67;32.33;;;;;23.50;94.71;99537.31;6283507;20;3592995;-49
2023/07/17 00:16:56;;;;;;;;;37.00;33.00;;;;;23.17;96.86;99538.38;6279094;20;3594078;-54
2023/07/17 00:19:25;;;;;;;;;26.00;26.00;;;;;23.32;96.58;99530.22;6279283;20;3583548;-55
2023/07/17 00:21:53;;;;;;;;;30.67;29.67;;;;;23.29;96.83;99536.06;6316674;20;3601467;-52
2023/07/17 00:24:21;;;;;;;;;33.00;31.00;;;;;23.22;97.01;99538.69;6281177;20;3595088;-54
2023/07/17 00:26:49;;;;;;;;;38.33;33.67;;;;;23.10;98.16;99540.13;6278384;20;3600320;-54
2023/07/17 00:29:25;;;;;;;;;36.00;32.00;;;;;23.22;97.33;99530.47;6286502;20;3595070;-51
2023/07/17 00:31:55;;;;;;;;;37.33;32.67;;;;;23.15;97.56;99534.94;6307924;20;3597138;-53
2023/07/17 00:34:23;;;;;;;;;34.00;31.67;;;;;23.03;98.87;99528.16;6313607;20;3587802;-52
2023/07/17 00:36:53;;;;;;;;;34.33;32.00;;;;;23.03;98.41;99524.56;6281330;20;3592991;-54
2023/07/17 00:39:23;;;;;;;;;33.33;31.00;;;;;22.93;98.40;99522.88;6280191;20;3594402;-53
2023/07/17 00:41:51;;;;;;;;;34.33;32.00;;;;;23.06;97.56;99519.59;6282119;20;3581633;-54
2023/07/17 00:44:19;;;;;;;;;35.00;32.00;;;;;22.91;98.78;99516.72;6282064;20;3588829;-52
2023/07/17 00:46:52;;;;;;;;;34.00;31.00;;;;;22.78;100.00;99521.94;6282577;20;1891988;-49
2023/07/17 00:49:23;;;;;;;;;38.33;32.00;;;;;22.95;99.23;99522.69;6311134;20;3594039;-50
2023/07/17 00:51:53;;;;;;;;;37.33;34.00;;;;;22.83;99.60;99519.50;6287231;20;3597233;-55
2023/07/17 00:54:21;;;;;;;;;33.00;31.00;;;;;22.94;99.46;99524.59;6286043;20;3473724;-51
2023/07/17 00:56:50;;;;;;;;;35.00;32.00;;;;;22.77;99.23;99517.47;6313082;20;3583730;-50
2023/07/17 00:59:19;;;;;;;;;35.00;32.00;;;;;23.07;97.87;99526.78;6284609;20;3541930;-48
2023/07/17 01:01:48;;;;;;;;;34.67;31.33;;;;;23.08;98.30;99528.47;6288075;20;3580458;-51
2023/07/17 01:04:17;;;;;;;;;40.00;34.67;;;;;23.03;99.29;99536.38;6283565;20;3618113;-53
2023/07/17 01:06:45;;;;;;;;;35.33;31.67;;;;;22.85;100.00;99539.31;6314696;20;3599290;-55
2023/07/17 01:09:21;;;;;;;;;41.00;35.00;;;;;22.72;100.00;99536.28;6284800;20;3581539;-54
2023/07/17 01:11:50;;;;;;;;;37.00;33.67;;;;;22.85;99.75;99543.94;6289214;20;3590869;-53
2023/07/17 01:14:19;;;;;;;;;37.00;34.00;;;;;23.00;99.92;99542.22;6285994;20;3605455;-50
2023/07/17 01:16:49;;;;;;;;;39.00;33.33;;;;;23.05;98.56;99539.78;6284880;20;3605480;-52
2023/07/17 01:19:17;;;;;;;;;37.00;32.00;;;;;22.84;100.00;99545.00;6285026;20;3596181;-50
2023/07/17 01:21:59;;;;;;;;;39.00;34.00;;;;;23.05;98.22;99545.28;6284753;20;3605043;-53
2023/07/17 01:24:28;;;;;;;;;36.33;32.33;;;;;22.89;98.61;99546.16;6315060;20;3597176;-52
2023/07/17 01:26:56;;;;;;;;;36.67;32.00;;;;;22.68;99.24;99537.69;6284236;20;3585708;-51
2023/07/17 01:29:24;;;;;;;;;38.33;34.00;;;;;22.65;100.00;99538.06;6286566;20;3570155;-51
2023/07/17 01:31:52;;;;;;;;;38.33;33.00;;;;;22.76;99.83;99540.41;6286405;20;3591103;-53
2023/07/17 01:34:21;;;;;;;;;35.67;32.00;;;;;22.48;100.00;99532.59;6283841;20;3577447;-52
2023/07/17 01:36:49;;;;;;;;;39.33;34.33;;;;;22.60;100.00;99541.31;6284937;20;3586736;-51
2023/07/17 01:39:17;;;;;;;;;35.67;32.67;;;;;22.57;100.00;99542.50;6285720;20;3592966;-52
2023/07/17 01:41:45;;;;;;;;;35.00;32.00;;;;;22.42;100.00;99538.78;6283598;20;3591994;-52
2023/07/17 01:44:14;;;;;;;;;38.00;32.33;;;;;22.40;100.00;99540.84;6283562;20;3588940;-52
2023/07/17 01:46:43;;;;;;;;;38.00;33.25;;;;;22.34;100.00;99536.91;6288020;20;3600276;-50
2023/07/17 01:49:11;;;;;;;;;35.00;32.00;;;;;22.31;100.00;99533.69;6316656;20;3586712;-51
2023/07/17 01:51:40;;;;;;;;;40.75;34.00;;;;;22.37;100.00;99532.13;6285102;20;3608548;-52
2023/07/17 01:54:09;;;;;;;;;40.50;33.50;;;;;22.40;100.00;99527.16;6317103;20;3600322;-54
2023/07/17 01:56:37;;;;;;;;;35.67;32.67;;;;;22.09;100.00;99536.09;6317043;20;3591954;-51
2023/07/17 01:59:05;;;;;;;;;39.00;33.67;;;;;22.20;100.00;99531.31;6284205;20;3605590;-53
2023/07/17 02:01:34;;;;;;;;;44.00;35.67;;;;;22.39;99.99;99539.13;6283656;20;3602468;-52
2023/07/17 02:04:03;;;;;;;;;42.75;35.00;;;;;22.39;100.00;99525.47;6287528;20;4360809;-53
2023/07/17 02:06:31;;;;;;;;;36.00;33.00;;;;;22.38;99.68;99540.19;6318249;20;3597202;-50
2023/07/17 02:08:59;;;;;;;;;42.67;35.00;;;;;22.07;100.00;99542.75;6284964;20;3578361;-49
2023/07/17 02:11:30;;;;;;;;;36.67;32.00;;;;;21.90;100.00;99544.63;6284362;20;3587838;-53
2023/07/17 02:13:58;;;;;;;;;35.67;32.33;;;;;21.67;100.00;99537.13;6280837;20;3580607;-50
2023/07/17 02:16:27;;;;;;;;;42.67;34.00;;;;;21.90;100.00;99533.69;6282379;20;3641171;-53
2023/07/17 02:18:55;;;;;;;;;37.00;34.00;;;;;21.99;100.00;99527.19;6284289;20;3605629;-54
2023/07/17 02:21:23;;;;;;;;;37.00;33.67;;;;;21.93;100.00;99538.81;6285779;20;3600294;-49
2023/07/17 02:23:51;;;;;;;;;43.00;36.67;;;;;21.92;100.00;99531.63;6284054;20;3578382;-49
2023/07/17 02:26:19;;;;;;;;;42.33;35.33;;;;;22.16;100.00;99540.84;6283182;20;3571162;-48
2023/07/17 02:28:48;;;;;;;;;39.75;34.25;;;;;22.05;100.00;99542.06;6285052;20;3609629;-50
2023/07/17 02:31:17;;;;;;;;;37.50;33.25;;;;;22.10;100.00;99545.13;6315604;20;3613811;-53
2023/07/17 02:33:46;;;;;;;;;40.67;35.33;;;;;22.09;100.00;99537.94;6313992;20;3579447;-49
2023/07/17 02:36:15;;;;;;;;;40.67;33.33;;;;;22.29;100.00;99538.47;6283377;20;3602330;-50
2023/07/17 02:38:43;;;;;;;;;43.00;35.00;;;;;22.23;100.00;99542.75;6281926;20;3602384;-52
2023/07/17 02:41:11;;;;;;;;;34.67;31.67;;;;;22.37;100.00;99540.34;6283391;20;3611713;-52
2023/07/17 02:43:39;;;;;;;;;40.67;34.33;;;;;22.26;100.00;99549.75;6281110;20;3582543;-52
2023/07/17 02:46:08;;;;;;;;;37.33;31.67;;;;;22.32;100.00;99557.28;6283619;20;3601325;-52
2023/07/17 02:48:36;;;;;;;;;40.67;35.00;;;;;22.20;100.00;99564.16;6285820;20;3590914;-50
2023/07/17 02:51:04;;;;;;;;;39.67;33.33;;;;;22.14;100.00;99571.09;6281738;20;3601411;-49
2023/07/17 02:53:32;;;;;;;;;37.00;34.00;;;;;22.08;100.00;99558.97;6282011;20;3590990;-52
2023/07/17 02:56:01;;;;;;;;;42.00;34.00;;;;;22.09;100.00;99570.75;6284801;20;3611904;-53
2023/07/17 02:58:29;;;;;;;;;40.75;34.00;;;;;22.02;100.00;99565.13;6282745;20;3610724;-49
2023/07/17 03:00:58;;;;;;;;;35.25;31.75;;;;;21.90;100.00;99571.97;6314728;20;3608702;-51
2023/07/17 03:03:27;;;;;;;;;39.00;34.33;;;;;22.02;100.00;99573.34;6315856;20;3587186;-48
2023/07/17 03:05:58;;;;;;;;;39.00;33.00;;;;;22.23;100.00;99582.94;6287451;20;3587859;-53
2023/07/17 03:08:26;;;;;;;;;36.00;32.00;;;;;22.18;100.00;99580.69;6284421;20;3594062;-50
2023/07/17 03:10:55;;;;;;;;;37.33;34.00;;;;;22.02;100.00;99589.75;6284514;20;3590942;-47
2023/07/17 03:13:23;;;;;;;;;36.00;31.00;;;;;22.10;100.00;99588.88;6281187;20;3602353;-52
2023/07/17 03:15:51;;;;;;;;;37.00;31.00;;;;;21.99;100.00;99587.34;6284368;20;3587912;-50
2023/07/17 03:18:19;;;;;;;;;37.00;32.00;;;;;21.93;100.00;99588.00;6281586;20;3604385;-49
2023/07/17 03:20:48;;;;;;;;;37.33;34.33;;;;;22.16;100.00;99598.28;6280892;20;3603389;-52
2023/07/17 03:23:16;;;;;;;;;35.00;31.00;;;;;22.19;99.77;99595.22;6282380;20;3585730;-51
2023/07/17 03:25:44;;;;;;;;;34.33;30.33;;;;;22.20;98.61;99592.34;6286584;20;3590948;-50
2023/07/17 03:28:13;;;;;;;;;37.33;32.00;;;;;22.21;98.12;99607.72;6280223;20;3577337;-49
2023/07/17 03:30:41;;;;;;;;;34.33;32.00;;;;;22.24;97.51;99609.25;6286153;20;3584639;-54
2023/07/17 03:33:09;;;;;;;;;33.67;31.67;;;;;22.25;97.15;99611.81;6284319;20;3594157;-49
2023/07/17 03:35:38;;;;;;;;;36.00;33.00;;;;;22.14;97.87;99613.00;6283279;20;3591916;-51
2023/07/17 03:38:06;;;;;;;;;35.33;31.67;;;;;22.00;98.62;99605.44;6280403;20;3604513;-52
2023/07/17 03:40:34;;;;;;;;;23.00;23.00;;;;;22.10;98.84;99603.41;6282523;20;3463827;-48
2023/07/17 03:43:02;;;;;;;;;37.00;32.00;;;;;22.09;97.43;99600.84;6311893;20;3582543;-49
2023/07/17 03:45:30;;;;;;;;;37.50;34.00;;;;;22.13;98.04;99600.31;6283665;20;3529490;-49
2023/07/17 03:47:58;;;;;;;;;35.67;32.00;;;;;22.26;97.83;99599.00;6311763;20;3604462;-49
2023/07/17 03:50:27;;;;;;;;;34.33;32.00;;;;;22.19;98.59;99597.97;6278340;20;3594075;-50
2023/07/17 03:52:55;;;;;;;;;37.33;33.00;;;;;22.11;99.68;99587.84;6280111;20;2850428;-50
2023/07/17 03:55:25;;;;;;;;;35.67;32.67;;;;;22.34;97.72;99593.50;6309373;20;3578457;-51
2023/07/17 03:57:53;;;;;;;;;34.67;31.33;;;;;22.60;95.87;99585.09;6311654;20;3601298;-47
2023/07/17 04:00:21;;;;;;;;;39.67;33.67;;;;;22.53;96.86;99584.06;6283415;20;3596117;-52
2023/07/17 04:02:49;;;;;;;;;33.67;30.67;;;;;22.67;95.87;99590.72;6284121;20;3593993;-48
2023/07/17 04:05:18;;;;;;;;;29.33;29.00;;;;;22.74;95.33;99586.25;6280479;20;3582724;-50
2023/07/17 04:07:46;;;;;;;;;35.67;30.67;;;;;22.86;93.73;99595.81;6281344;20;3597155;-48
2023/07/17 04:10:15;;;;;;;;;32.25;30.00;;;;;22.86;95.11;99598.53;6282760;20;3606567;-52
2023/07/17 04:12:43;;;;;;;;;34.67;31.33;;;;;22.84;94.94;99603.34;6314446;20;3606553;-50
2023/07/17 04:15:12;;;;;;;;;33.33;28.33;;;;;22.90;95.53;99602.63;6279025;20;3602362;-53
2023/07/17 04:17:40;;;;;;;;;32.33;31.00;;;;;23.18;92.83;99599.47;6276246;20;3601293;-51
2023/07/17 04:20:10;;;;;;;;;24.33;23.00;;;;;23.33;91.47;99596.81;6280962;20;3598223;-49
2023/07/17 04:22:38;;;;;;;;;31.67;29.67;;;;;23.47;91.00;99592.50;6279861;20;3593033;-47
2023/07/17 04:25:08;;;;;;;;;30.00;29.25;;;;;23.70;89.27;99587.91;6285607;20;3605647;-50
2023/07/17 04:27:37;;;;;;;;;27.00;27.00;;;;;23.71;89.26;99594.22;6313384;20;3592088;-49
2023/07/17 04:30:06;;;;;;;;;32.67;29.00;;;;;23.73;89.71;99589.47;6286392;20;3584648;-52
2023/07/17 04:32:34;;;;;;;;;30.00;29.67;;;;;23.87;88.86;99589.50;6284643;20;3602372;-50
2023/07/17 04:35:03;;;;;;;;;31.00;29.67;;;;;23.87;88.35;99594.13;6287272;20;3599240;-50
2023/07/17 04:37:31;;;;;;;;;30.67;29.67;;;;;23.88;87.91;99591.22;6283496;20;3595035;-49
2023/07/17 04:39:59;;;;;;;;;28.33;28.33;;;;;23.91;88.57;99589.13;6283621;20;3582542;-50
2023/07/17 04:42:28;;;;;;;;;35.25;31.50;;;;;23.87;88.94;99594.97;6283217;20;3604592;-50
2023/07/17 04:44:56;;;;;;;;;32.33;29.00;;;;;23.99;89.32;99595.44;6316552;20;3588889;-48
2023/07/17 04:47:24;;;;;;;;;30.00;28.00;;;;;24.47;87.49;99606.19;6283243;20;3580757;-55
2023/07/17 04:49:53;;;;;;;;;33.33;30.33;;;;;24.61;85.05;99610.84;6287210;20;3595043;-49
2023/07/17 04:52:22;;;;;;;;;31.00;30.25;;;;;24.71;85.10;99616.06;6284924;20;3599304;-51
2023/07/17 04:54:51;;;;;;;;;36.00;31.33;;;;;24.68;86.45;99619.19;6314285;20;3599220;-54
2023/07/17 04:57:21;;;;;;;;;31.00;28.33;;;;;24.74;85.34;99624.78;6311989;20;3586141;-50
2023/07/17 04:59:50;;;;;;;;;34.00;31.33;;;;;24.65;86.45;99628.66;6313257;20;3613785;-55
2023/07/17 05:02:19;;;;;;;;;32.75;30.75;;;;;24.77;88.32;99634.53;6283916;20;3600371;-52
2023/07/17 05:04:48;;;;;;;;;33.00;30.25;;;;;25.03;89.54;99639.56;6320173;20;3597162;-49
2023/07/17 05:07:17;;;;;;;;;32.50;30.25;;;;;25.40;84.50;99640.53;6316236;20;3604514;-51
2023/07/17 05:09:46;;;;;;;;;34.25;29.75;;;;;25.62;82.46;99645.06;6320561;20;3606729;-54
2023/07/17 05:12:15;;;;;;;;;25.25;25.25;;;;;25.57;80.56;99639.28;6315819;20;3602427;-52
2023/07/17 05:14:44;;;;;;;;;29.67;28.33;;;;;25.68;81.21;99639.81;6314071;20;3594027;-52
2023/07/17 05:17:13;;;;;;;;;28.75;28.00;;;;;25.95;80.06;99644.59;6282960;20;3590968;-49
2023/07/17 05:19:44;;;;;;;;;28.14;27.86;;;;;26.58;77.53;99646.72;6329942;20;3576290;-55
2023/07/17 05:22:14;;;;;;;;;27.29;26.29;;;;;26.31;76.92;99643.69;6332353;20;3581558;-55
2023/07/17 05:24:43;;;;;;;;;31.25;28.50;;;;;26.34;77.47;99646.06;6285266;20;3596088;-54
2023/07/17 05:27:12;;;;;;;;;25.33;25.33;;;;;26.55;76.42;99645.22;6313105;20;3581497;-50
2023/07/17 05:29:43;;;;;;;;;28.57;27.43;;;;;26.49;77.28;99638.56;6332147;20;3593999;-53
2023/07/17 05:32:15;;;;;;;;;29.00;27.50;;;;;26.67;75.47;99642.75;6284068;20;3606479;-51
2023/07/17 05:34:44;;;;;;;;;30.33;28.67;;;;;26.60;75.54;99639.09;6316346;20;3596087;-52
2023/07/17 05:37:13;;;;;;;;;31.33;30.33;;;;;26.74;76.00;99649.16;6283579;20;3587824;-53
2023/07/17 05:39:42;;;;;;;;;30.00;28.00;;;;;26.78;76.26;99647.72;6283127;20;3586731;-53
2023/07/17 05:42:11;;;;;;;;;32.75;30.25;;;;;27.08;75.62;99650.25;6284768;20;3603459;-50
2023/07/17 05:44:40;;;;;;;;;31.00;29.00;;;;;26.89;76.19;99636.13;6315451;20;3602345;-53
2023/07/17 05:47:08;;;;;;;;;35.00;31.33;;;;;26.96;77.09;99640.84;6285992;20;3583693;-48
2023/07/17 05:49:37;;;;;;;;;27.67;27.67;;;;;27.18;74.76;99639.75;6284993;20;3591021;-50
2023/07/17 05:52:07;;;;;;;;;29.00;28.75;;;;;27.56;75.10;99640.13;6286548;20;3604541;-50
2023/07/17 05:54:38;;;;;;;;;29.29;28.71;;;;;27.50;75.18;99642.88;6335336;20;3584073;-51
2023/07/17 05:57:07;;;;;;;;;24.00;24.00;;;;;27.33;73.08;99632.19;6283034;20;3596174;-53
2023/07/17 05:59:36;;;;;;;;;28.00;27.00;;;;;27.58;72.47;99634.41;6285513;20;3575433;-49
2023/07/17 06:02:05;;;;;;;;;28.75;28.75;;;;;27.66;71.63;99636.97;6288617;20;3589852;-52
2023/07/17 06:04:34;;;;;;;;;28.00;28.00;;;;;27.76;72.23;99631.94;6317370;20;3585740;-51
2023/07/17 06:07:04;;;;;;;;;28.33;28.33;;;;;27.76;71.87;99642.97;6314879;20;3573192;-54
2023/07/17 06:09:35;;;;;;;;;25.00;24.43;;;;;27.80;70.87;99648.91;6332850;20;3596204;-55
2023/07/17 06:12:04;;;;;;;;;23.33;23.33;;;;;27.99;70.42;99636.28;6285386;20;3588866;-50
2023/07/17 06:14:33;;;;;;;;;26.67;25.00;;;;;28.12;70.28;99635.44;6281322;20;3587746;-50
2023/07/17 06:17:02;;;;;;;;;22.67;22.67;;;;;28.41;69.24;99648.00;6282197;20;3594054;-53
2023/07/17 06:19:31;;;;;;;;;22.00;21.00;;;;;28.26;67.96;99642.69;6283969;20;3592008;-54
2023/07/17 06:22:02;;;;;;;;;24.14;23.71;;;;;28.40;66.46;99649.06;6335551;20;3594006;-48
2023/07/17 06:24:32;;;;;;;;;22.67;22.67;;;;;28.47;66.63;99649.13;6283447;20;3592083;-49
2023/07/17 06:27:03;;;;;;;;;24.57;23.57;;;;;28.45;67.42;99649.31;6333021;20;3593133;-49
2023/07/17 06:29:32;;;;;;;;;24.33;23.00;;;;;28.36;66.63;99647.81;6283041;20;3591918;-49
2023/07/17 06:32:03;;;;;;;;;25.71;23.57;;;;;28.40;66.89;99649.06;6332657;20;3589885;-48
2023/07/17 06:34:33;;;;;;;;;26.00;25.00;;;;;29.01;65.83;99651.59;6282808;20;3594180;-49
2023/07/17 06:37:05;;;;;;;;;26.29;26.29;;;;;29.01;64.68;99645.22;6334014;20;3584261;-48
2023/07/17 06:39:34;;;;;;;;;25.67;24.00;;;;;28.89;65.59;99642.28;6283786;20;3601266;-48
2023/07/17 06:42:03;;;;;;;;;26.00;26.00;;;;;29.10;65.09;99635.69;6274022;20;3582615;-51
2023/07/17 06:44:32;;;;;;;;;24.00;24.00;;;;;29.54;64.09;99636.78;6283447;20;3594051;-48
2023/07/17 06:47:03;;;;;;;;;25.86;25.86;;;;;29.32;63.93;99642.63;6330776;20;3598324;-52
2023/07/17 06:49:34;;;;;;;;;25.25;25.25;;;;;29.98;62.19;99641.50;6302385;20;3606538;-53
2023/07/17 06:52:07;;;;;;;;;25.00;25.00;;;;;29.91;62.48;99646.25;6331851;20;3576396;-51
2023/07/17 06:54:35;;;;;;;;;29.33;28.00;;;;;30.12;61.37;99647.84;6287129;20;3579444;-55
2023/07/17 06:57:26;;;;;;;;;29.43;27.00;;;;;30.25;60.57;99640.50;6297700;20;3590028;-55
2023/07/17 06:59:55;;;;;;;;;23.33;23.33;;;;;30.94;60.05;99647.00;6281522;20;3593999;-52
2023/07/17 07:02:24;;;;;;;;;23.00;23.00;;;;;30.91;59.26;99639.97;6281274;20;3586449;-55
2023/07/17 07:04:52;;;;;;;;;17.67;17.67;;;;;31.04;59.14;99639.00;6280170;20;3558634;-52
2023/07/17 07:07:21;;;;;;;;;24.67;23.33;;;;;31.24;57.29;99639.63;6282855;20;3589998;-55
2023/07/17 07:09:51;;;;;;;;;19.86;17.43;;;;;31.02;56.64;99635.63;6299902;20;3567035;-51
2023/07/17 07:12:20;;;;;;;;;16.33;16.33;;;;;31.46;56.71;99637.25;6278924;20;3558613;-54
2023/07/17 07:14:48;;;;;;;;;15.67;15.67;;;;;31.77;53.98;99629.81;6315545;20;3583688;-52
2023/07/17 07:17:16;;;;;;;;;9.00;9.00;;;;;31.99;54.72;99630.19;6286412;20;2752358;-54
2023/07/17 07:19:45;;;;;;;;;15.33;15.33;;;;;32.34;54.23;99638.63;6313744;20;2816002;-51
2023/07/17 07:22:13;;;;;;;;;17.00;17.00;;;;;32.13;51.94;99636.41;6313763;20;3570246;-53
2023/07/17 07:24:46;;;;;;;;;17.33;16.00;;;;;32.32;51.91;99631.63;6283529;20;2829449;-54
2023/07/17 07:27:15;;;;;;;;;19.00;17.67;;;;;32.53;52.09;99636.66;6314838;20;3567987;-54
2023/07/17 07:29:43;;;;;;;;;16.00;16.00;;;;;32.28;51.99;99633.16;6287076;20;3553385;-55
2023/07/17 07:32:11;;;;;;;;;16.67;16.00;;;;;32.38;51.45;99633.44;6316370;20;3551342;-55
2023/07/17 07:34:40;;;;;;;;;15.33;15.33;;;;;32.28;51.85;99630.38;6280476;20;3542061;-55
2023/07/17 07:37:08;;;;;;;;;17.00;15.00;;;;;32.25;51.67;99633.66;6314648;20;3558667;-57
2023/07/17 07:39:37;;;;;;;;;17.00;17.00;;;;;32.84;51.51;99644.91;6280274;20;3559650;-55
2023/07/17 07:42:06;;;;;;;;;18.33;17.33;;;;;32.60;49.95;99646.78;6315762;20;3558606;-52
2023/07/17 07:44:35;;;;;;;;;17.00;17.00;;;;;32.81;51.56;99646.22;6281507;20;3556484;-54
2023/07/17 07:47:05;;;;;;;;;13.50;13.50;;;;;33.36;50.09;99651.44;6309488;20;2794026;-48
2023/07/17 07:49:34;;;;;;;;;17.33;15.00;;;;;33.56;50.14;99655.78;6282151;20;3551511;-50
2023/07/17 07:52:05;;;;;;;;;17.00;17.00;;;;;33.02;50.88;99655.94;6335998;20;3569116;-51
2023/07/17 07:54:33;;;;;;;;;19.33;17.67;;;;;33.21;49.31;99665.84;6283037;20;3561712;-49
2023/07/17 07:57:02;;;;;;;;;21.33;20.00;;;;;32.89;51.30;99664.47;6281701;20;3569144;-52
2023/07/17 07:59:30;;;;;;;;;16.00;15.50;;;;;33.69;50.82;99665.78;6280330;20;2813838;-53
2023/07/17 08:01:58;;;;;;;;;20.00;17.33;;;;;33.74;49.61;99669.53;6278401;20;3565916;-52
2023/07/17 08:04:30;;;;;;;;;16.00;16.00;;;;;33.60;50.02;99666.19;6283909;20;3562768;-51
2023/07/17 08:06:58;;;;;;;;;21.33;20.33;;;;;33.54;48.99;99669.09;6284112;20;3580518;-52
2023/07/17 08:09:29;;;;;;;;;17.00;17.00;;;;;33.00;49.17;99658.94;6280021;20;3561743;-51
2023/07/17 08:12:00;;;;;;;;;20.00;19.14;;;;;33.41;48.88;99659.91;6330865;20;3583575;-53
2023/07/17 08:14:30;;;;;;;;;16.57;16.00;;;;;33.74;49.01;99655.59;6299797;20;3548397;-53
2023/07/17 08:16:59;;;;;;;;;17.00;17.00;;;;;34.26;47.55;99649.09;6278840;20;3568108;-51
2023/07/17 08:19:27;;;;;;;;;17.67;17.67;;;;;33.28;49.42;99653.72;6285703;20;3561734;-48
2023/07/17 08:21:56;;;;;;;;;23.25;21.00;;;;;33.03;50.77;99660.41;6281300;20;3588020;-50
2023/07/17 08:24:26;;;;;;;;;17.14;17.14;;;;;33.19;49.95;99661.59;6334147;20;3551299;-50
2023/07/17 08:26:58;;;;;;;;;21.43;20.43;;;;;33.66;49.39;99659.59;6299247;20;3588838;-51
2023/07/17 08:29:29;;;;;;;;;20.71;19.43;;;;;33.62;50.44;99652.00;6301839;20;3562782;-48
2023/07/17 08:32:00;;;;;;;;;21.14;21.14;;;;;33.58;50.41;99665.56;6298576;20;3576436;-54
2023/07/17 08:34:31;;;;;;;;;22.57;22.57;;;;;33.74;50.06;99663.94;6300460;20;3594102;-52
2023/07/17 08:36:59;;;;;;;;;23.00;21.00;;;;;33.71;48.21;99664.44;6279859;20;1889884;-55
2023/07/17 08:39:30;;;;;;;;;22.00;20.57;;;;;33.51;50.36;99670.38;6332260;20;3583690;-51
2023/07/17 08:42:01;;;;;;;;;22.29;22.29;;;;;33.80;50.66;99660.16;6298627;20;3579492;-53
2023/07/17 08:44:30;;;;;;;;;20.67;20.67;;;;;33.70;51.19;99667.47;6277228;20;3585901;-57
2023/07/17 08:47:05;;;;;;;;;24.57;21.43;;;;;33.62;50.91;99663.97;6296640;20;3579457;-52
2023/07/17 08:49:35;;;;;;;;;19.33;17.67;;;;;33.51;50.75;99666.75;6281767;20;3577361;-55
2023/07/17 08:52:09;;;;;;;;;23.86;23.86;;;;;33.65;52.97;99669.06;6299251;20;3601320;-51
2023/07/17 08:54:40;;;;;;;;;21.57;21.57;;;;;34.19;52.40;99663.19;6296741;20;3586744;-54
2023/07/17 08:57:12;;;;;;;;;20.86;20.86;;;;;34.13;50.81;99658.63;6297505;20;3592088;-58
2023/07/17 08:59:44;;;;;;;;;22.14;21.29;;;;;33.91;51.30;99668.72;6294045;20;3592025;-52
2023/07/17 09:02:15;;;;;;;;;21.14;21.14;;;;;34.14;51.06;99657.50;6289490;20;3581699;-55
2023/07/17 09:04:46;;;;;;;;;21.43;21.43;;;;;34.01;49.88;99663.38;6292792;20;3580550;-55
2023/07/17 09:07:16;;;;;;;;;22.00;20.86;;;;;34.07;50.78;99656.81;6295029;20;3584692;-53
2023/07/17 09:10:20;;;;;;;;;24.29;24.29;;;;;34.48;50.18;99664.00;6295747;20;3589846;-56
2023/07/17 09:12:55;;;;;;;;;22.86;20.71;;;;;34.41;49.32;99659.66;6301450;20;3587785;-56
2023/07/17 09:15:29;;;;;;;;;23.71;22.14;;;;;34.21;49.97;99671.31;6304153;20;3585654;-51
2023/07/17 09:18:03;;;;;;;;;22.88;22.88;;;;;34.28;49.31;99667.28;6302405;20;3596104;-55
2023/07/17 09:20:34;;;;;;;;;24.29;22.29;;;;;34.28;49.06;99658.91;6336337;20;3575383;-53
2023/07/17 09:23:04;;;;;;;;;18.86;18.86;;;;;34.62;49.47;99661.75;6302504;20;3573268;-55
2023/07/17 09:25:33;;;;;;;;;15.67;15.67;;;;;34.30;49.53;99651.13;6288765;20;3558717;-57
2023/07/17 09:28:04;;;;;;;;;18.43;17.00;;;;;33.87;50.45;99652.50;6301457;20;3563864;-52
2023/07/17 09:30:34;;;;;;;;;19.86;19.86;;;;;34.08;49.69;99655.75;6300705;20;3571194;-54
2023/07/17 09:33:07;;;;;;;;;21.33;21.00;;;;;33.86;51.09;99650.84;6283659;20;3573245;-54
2023/07/17 09:35:37;;;;;;;;;22.71;21.14;;;;;34.11;49.65;99646.88;6335417;20;3580503;-53
2023/07/17 09:38:10;;;;;;;;;24.00;21.00;;;;;34.47;51.09;99651.16;6300301;20;3583593;-52
2023/07/17 09:40:41;;;;;;;;;21.00;20.14;;;;;34.80;49.19;99654.22;6305383;20;3571119;-57
2023/07/17 09:43:10;;;;;;;;;24.75;22.50;;;;;34.31;49.84;99646.41;6286849;20;3602495;-57
2023/07/17 09:45:42;;;;;;;;;23.00;23.00;;;;;34.39;49.34;99645.13;6335663;20;3587789;-56
2023/07/17 09:48:14;;;;;;;;;22.43;22.43;;;;;34.55;49.53;99647.09;6301464;20;3587762;-55
2023/07/17 09:50:45;;;;;;;;;19.14;18.71;;;;;34.46;48.75;99648.59;6302774;20;3564852;-58
2023/07/17 09:53:16;;;;;;;;;23.57;22.00;;;;;34.12;49.13;99645.75;6300690;20;3583581;-53
2023/07/17 09:55:50;;;;;;;;;23.43;23.29;;;;;34.33;47.72;99648.94;6304124;20;3583676;-57
2023/07/17 09:58:25;;;;;;;;;26.75;24.75;;;;;34.74;47.83;99645.78;6331293;20;3602474;-53
2023/07/17 10:00:58;;;;;;;;;25.50;25.50;;;;;34.53;47.70;99644.56;6302216;20;3594034;-55
2023/07/17 10:03:31;;;;;;;;;20.14;20.14;;;;;34.50;49.55;99636.69;6328042;20;3568990;-55
2023/07/17 10:06:04;;;;;;;;;21.14;21.14;;;;;34.69;47.31;99636.47;6289510;20;3578431;-57
2023/07/17 10:08:35;;;;;;;;;22.43;22.43;;;;;34.69;45.80;99637.31;6302422;20;3585982;-51
2023/07/17 10:11:05;;;;;;;;;23.71;22.57;;;;;34.64;46.69;99634.44;6300315;20;3583615;-54
2023/07/17 10:13:36;;;;;;;;;19.57;19.57;;;;;35.06;46.15;99642.34;6301673;20;3580459;-54
2023/07/17 10:16:08;;;;;;;;;28.29;24.29;;;;;35.05;46.79;99639.84;6301454;20;3597163;-54
2023/07/17 10:18:49;;;;;;;;;24.25;23.25;;;;;34.90;47.73;99643.22;6285223;20;3596159;-55
2023/07/17 10:21:19;;;;;;;;;17.67;15.67;;;;;34.39;48.15;99634.84;6318585;20;3556626;-57
2023/07/17 10:23:50;;;;;;;;;27.86;25.57;;;;;35.14;47.68;99635.53;6298870;20;3569111;-55
2023/07/17 10:26:21;;;;;;;;;27.57;24.14;;;;;35.29;48.59;99637.69;6301369;20;3585814;-51
2023/07/17 10:28:54;;;;;;;;;30.63;27.63;;;;;35.14;48.34;99636.34;6289036;20;3615115;-55
2023/07/17 10:31:24;;;;;;;;;22.00;22.00;;;;;35.89;47.13;99634.00;6280123;20;3583707;-53
2023/07/17 10:34:03;;;;;;;;;25.00;22.50;;;;;35.78;46.38;99633.03;6325957;20;3584760;-54
2023/07/17 10:36:42;;;;;;;;;22.63;21.63;;;;;35.03;48.59;99633.66;6331771;20;3592018;-53
2023/07/17 10:39:19;;;;;;;;;23.71;22.71;;;;;35.47;47.21;99630.94;6331148;20;3577378;-51
2023/07/17 10:41:51;;;;;;;;;9.33;9.33;;;;;35.76;46.98;99624.09;6293391;20;2768066;-55
2023/07/17 10:44:22;;;;;;;;;25.71;25.57;;;;;35.55;48.30;99630.50;6336523;20;3579488;-54
2023/07/17 10:46:53;;;;;;;;;23.57;23.57;;;;;36.26;47.17;99628.53;6299553;20;3602394;-57
2023/07/17 10:49:25;;;;;;;;;23.50;23.00;;;;;35.65;47.14;99616.66;6301675;20;3592982;-54
2023/07/17 10:51:55;;;;;;;;;22.29;21.14;;;;;36.02;48.29;99616.81;6334443;20;3587837;-53
2023/07/17 10:54:27;;;;;;;;;24.00;23.25;;;;;36.08;48.32;99616.91;6300417;20;3594182;-58
2023/07/17 10:56:58;;;;;;;;;25.00;24.63;;;;;36.17;47.42;99607.75;6312617;20;4333607;-54
2023/07/17 10:59:30;;;;;;;;;24.50;22.38;;;;;35.97;47.05;99605.59;6329973;20;3581697;-54
2023/07/17 11:02:02;;;;;;;;;22.43;21.57;;;;;35.75;47.60;99600.03;6332825;20;3572269;-55
2023/07/17 11:04:34;;;;;;;;;25.00;25.00;;;;;35.30;48.70;99603.06;6303812;20;3596116;-54
2023/07/17 11:07:08;;;;;;;;;23.71;21.57;;;;;34.94;48.72;99599.75;6297078;20;3582515;-55
2023/07/17 11:09:44;;;;;;;;;22.00;22.00;;;;;35.21;49.20;99602.69;6305042;20;3596074;-53
2023/07/17 11:12:13;;;;;;;;;23.75;23.75;;;;;35.31;48.41;99601.97;6286292;20;3585703;-55